sensor_id;sensor_type;location;lat;lon;timestamp;P1;durP1;ratioP1;P2;durP2;ratioP2
7917;SDS011;4004;42.624;23.386;2022-11-15T00:00:45;20.17;;;15.97;;
7917;SDS011;4004;42.624;23.386;2022-11-15T00:03:13;20.47;;;16.47;;
7917;SDS011;4004;42.624;23.386;2022-11-15T00:05:41;18.73;;;15.70;;
7917;SDS011;4004;42.624;23.386;2022-11-15T00:08:08;22.63;;;15.20;;
7917;SDS011;4004;42.624;23.386;2022-11-15T00:10:35;17.93;;;14.57;;
7917;SDS011;4004;42.624;23.386;2022-11-15T00:13:04;22.27;;;15.63;;
7917;SDS011;4004;42.624;23.386;2022-11-15T00:15:31;19.37;;;15.83;;
7917;SDS011;4004;42.624;23.386;2022-11-15T00:17:57;21.73;;;17.73;;
7917;SDS011;4004;42.624;23.386;2022-11-15T00:20:24;25.07;;;18.67;;
7917;SDS011;4004;42.624;23.386;2022-11-15T00:22:52;21.53;;;17.10;;
7917;SDS011;4004;42.624;23.386;2022-11-15T00:25:19;19.73;;;15.83;;
7917;SDS011;4004;42.624;23.386;2022-11-15T00:27:46;21.07;;;16.60;;
7917;SDS011;4004;42.624;23.386;2022-11-15T00:30:12;17.50;;;14.00;;
7917;SDS011;4004;42.624;23.386;2022-11-15T00:32:39;19.93;;;13.67;;
7917;SDS011;4004;42.624;23.386;2022-11-15T00:35:06;17.63;;;13.60;;
7917;SDS011;4004;42.624;23.386;2022-11-15T00:37:33;18.07;;;14.33;;
7917;SDS011;4004;42.624;23.386;2022-11-15T00:40:01;18.53;;;14.53;;
7917;SDS011;4004;42.624;23.386;2022-11-15T00:42:28;20.47;;;15.80;;
7917;SDS011;4004;42.624;23.386;2022-11-15T00:44:55;20.77;;;15.03;;
7917;SDS011;4004;42.624;23.386;2022-11-15T00:47:22;21.20;;;16.33;;
7917;SDS011;4004;42.624;23.386;2022-11-15T00:49:49;21.57;;;16.37;;
7917;SDS011;4004;42.624;23.386;2022-11-15T00:52:15;20.20;;;16.00;;
7917;SDS011;4004;42.624;23.386;2022-11-15T00:54:42;16.67;;;13.43;;
7917;SDS011;4004;42.624;23.386;2022-11-15T00:57:10;17.70;;;14.60;;
7917;SDS011;4004;42.624;23.386;2022-11-15T00:59:37;19.20;;;14.13;;
7917;SDS011;4004;42.624;23.386;2022-11-15T01:02:03;22.23;;;14.67;;
7917;SDS011;4004;42.624;23.386;2022-11-15T01:04:30;19.43;;;15.13;;
7917;SDS011;4004;42.624;23.386;2022-11-15T01:06:57;21.10;;;15.70;;
7917;SDS011;4004;42.624;23.386;2022-11-15T01:09:24;19.97;;;14.87;;
7917;SDS011;4004;42.624;23.386;2022-11-15T01:11:50;19.30;;;15.03;;
7917;SDS011;4004;42.624;23.386;2022-11-15T01:14:19;19.77;;;13.93;;
7917;SDS011;4004;42.624;23.386;2022-11-15T01:16:46;16.40;;;11.87;;
7917;SDS011;4004;42.624;23.386;2022-11-15T01:19:13;18.73;;;13.30;;
7917;SDS011;4004;42.624;23.386;2022-11-15T01:21:39;17.87;;;14.00;;
7917;SDS011;4004;42.624;23.386;2022-11-15T01:24:07;21.97;;;15.53;;
7917;SDS011;4004;42.624;23.386;2022-11-15T01:26:35;26.70;;;18.20;;
7917;SDS011;4004;42.624;23.386;2022-11-15T01:29:02;26.13;;;20.03;;
7917;SDS011;4004;42.624;23.386;2022-11-15T01:31:30;33.63;;;22.97;;
7917;SDS011;4004;42.624;23.386;2022-11-15T01:33:57;26.63;;;17.93;;
7917;SDS011;4004;42.624;23.386;2022-11-15T01:36:24;19.93;;;15.90;;
7917;SDS011;4004;42.624;23.386;2022-11-15T01:38:52;16.63;;;14.27;;
7917;SDS011;4004;42.624;23.386;2022-11-15T01:41:21;17.13;;;13.27;;
7917;SDS011;4004;42.624;23.386;2022-11-15T01:43:50;15.27;;;12.87;;
7917;SDS011;4004;42.624;23.386;2022-11-15T01:46:22;14.03;;;11.50;;
7917;SDS011;4004;42.624;23.386;2022-11-15T01:48:57;18.70;;;13.30;;
7917;SDS011;4004;42.624;23.386;2022-11-15T01:51:26;19.57;;;13.37;;
7917;SDS011;4004;42.624;23.386;2022-11-15T01:53:57;16.57;;;13.10;;
7917;SDS011;4004;42.624;23.386;2022-11-15T01:56:27;16.37;;;12.37;;
7917;SDS011;4004;42.624;23.386;2022-11-15T01:58:59;16.13;;;12.37;;
7917;SDS011;4004;42.624;23.386;2022-11-15T02:01:30;15.40;;;11.00;;
7917;SDS011;4004;42.624;23.386;2022-11-15T02:04:01;17.70;;;12.80;;
7917;SDS011;4004;42.624;23.386;2022-11-15T02:06:34;16.60;;;13.53;;
7917;SDS011;4004;42.624;23.386;2022-11-15T02:09:02;19.67;;;15.13;;
7917;SDS011;4004;42.624;23.386;2022-11-15T02:11:29;21.93;;;15.70;;
7917;SDS011;4004;42.624;23.386;2022-11-15T02:13:56;20.70;;;15.60;;
7917;SDS011;4004;42.624;23.386;2022-11-15T02:16:27;21.70;;;15.67;;
7917;SDS011;4004;42.624;23.386;2022-11-15T02:19:13;23.77;;;13.80;;
7917;SDS011;4004;42.624;23.386;2022-11-15T02:21:56;17.53;;;12.73;;
7917;SDS011;4004;42.624;23.386;2022-11-15T02:24:49;17.93;;;14.63;;
7917;SDS011;4004;42.624;23.386;2022-11-15T02:27:39;16.60;;;13.17;;
7917;SDS011;4004;42.624;23.386;2022-11-15T02:30:25;19.27;;;14.37;;
7917;SDS011;4004;42.624;23.386;2022-11-15T02:32:59;17.17;;;13.23;;
7917;SDS011;4004;42.624;23.386;2022-11-15T02:35:32;17.03;;;13.97;;
7917;SDS011;4004;42.624;23.386;2022-11-15T02:38:08;18.60;;;13.93;;
7917;SDS011;4004;42.624;23.386;2022-11-15T02:40:45;18.83;;;14.70;;
7917;SDS011;4004;42.624;23.386;2022-11-15T02:43:19;20.53;;;14.87;;
7917;SDS011;4004;42.624;23.386;2022-11-15T02:46:13;18.93;;;14.43;;
7917;SDS011;4004;42.624;23.386;2022-11-15T02:48:44;18.03;;;13.97;;
7917;SDS011;4004;42.624;23.386;2022-11-15T02:51:12;16.27;;;13.33;;
7917;SDS011;4004;42.624;23.386;2022-11-15T02:53:39;16.77;;;13.23;;
7917;SDS011;4004;42.624;23.386;2022-11-15T02:56:07;18.33;;;13.43;;
7917;SDS011;4004;42.624;23.386;2022-11-15T02:58:47;16.40;;;12.77;;
7917;SDS011;4004;42.624;23.386;2022-11-15T03:01:28;17.20;;;13.50;;
7917;SDS011;4004;42.624;23.386;2022-11-15T03:04:07;16.37;;;13.17;;
7917;SDS011;4004;42.624;23.386;2022-11-15T03:06:45;15.37;;;12.87;;
7917;SDS011;4004;42.624;23.386;2022-11-15T03:09:19;16.23;;;13.37;;
7917;SDS011;4004;42.624;23.386;2022-11-15T03:11:55;16.30;;;12.70;;
7917;SDS011;4004;42.624;23.386;2022-11-15T03:14:25;18.40;;;14.83;;
7917;SDS011;4004;42.624;23.386;2022-11-15T03:16:58;18.23;;;14.33;;
7917;SDS011;4004;42.624;23.386;2022-11-15T03:19:34;17.63;;;13.10;;
7917;SDS011;4004;42.624;23.386;2022-11-15T03:22:07;17.70;;;13.90;;
7917;SDS011;4004;42.624;23.386;2022-11-15T03:24:38;16.57;;;13.90;;
7917;SDS011;4004;42.624;23.386;2022-11-15T03:27:05;17.77;;;13.27;;
7917;SDS011;4004;42.624;23.386;2022-11-15T03:29:35;17.10;;;12.50;;
7917;SDS011;4004;42.624;23.386;2022-11-15T03:32:07;16.83;;;12.40;;
7917;SDS011;4004;42.624;23.386;2022-11-15T03:34:39;15.03;;;12.20;;
7917;SDS011;4004;42.624;23.386;2022-11-15T03:37:11;16.13;;;13.17;;
7917;SDS011;4004;42.624;23.386;2022-11-15T03:39:40;19.60;;;14.00;;
7917;SDS011;4004;42.624;23.386;2022-11-15T03:42:12;15.93;;;12.80;;
7917;SDS011;4004;42.624;23.386;2022-11-15T03:44:47;16.00;;;12.70;;
7917;SDS011;4004;42.624;23.386;2022-11-15T03:47:23;19.60;;;14.13;;
7917;SDS011;4004;42.624;23.386;2022-11-15T03:49:56;16.03;;;13.87;;
7917;SDS011;4004;42.624;23.386;2022-11-15T03:52:26;15.50;;;12.60;;
7917;SDS011;4004;42.624;23.386;2022-11-15T03:54:59;16.47;;;14.07;;
7917;SDS011;4004;42.624;23.386;2022-11-15T03:57:28;17.40;;;14.30;;
7917;SDS011;4004;42.624;23.386;2022-11-15T03:59:54;18.73;;;13.87;;
7917;SDS011;4004;42.624;23.386;2022-11-15T04:02:22;28.77;;;23.03;;
7917;SDS011;4004;42.624;23.386;2022-11-15T04:04:49;62.03;;;32.13;;
7917;SDS011;4004;42.624;23.386;2022-11-15T04:07:16;201.63;;;42.97;;
7917;SDS011;4004;42.624;23.386;2022-11-15T04:09:43;133.60;;;43.27;;
7917;SDS011;4004;42.624;23.386;2022-11-15T04:12:27;347.17;;;53.97;;
7917;SDS011;4004;42.624;23.386;2022-11-15T04:14:57;467.80;;;57.70;;
7917;SDS011;4004;42.624;23.386;2022-11-15T04:17:37;462.52;;;55.10;;
7917;SDS011;4004;42.624;23.386;2022-11-15T04:20:06;409.83;;;50.72;;
7917;SDS011;4004;42.624;23.386;2022-11-15T04:22:53;443.95;;;47.45;;
7917;SDS011;4004;42.624;23.386;2022-11-15T04:25:38;373.80;;;43.05;;
7917;SDS011;4004;42.624;23.386;2022-11-15T04:28:05;363.05;;;41.80;;
7917;SDS011;4004;42.624;23.386;2022-11-15T04:30:32;302.67;;;41.70;;
7917;SDS011;4004;42.624;23.386;2022-11-15T04:33:00;247.07;;;40.78;;
7917;SDS011;4004;42.624;23.386;2022-11-15T04:35:27;227.70;;;40.03;;
7917;SDS011;4004;42.624;23.386;2022-11-15T04:37:54;362.27;;;42.03;;
7917;SDS011;4004;42.624;23.386;2022-11-15T04:40:21;329.90;;;43.08;;
7917;SDS011;4004;42.624;23.386;2022-11-15T04:42:48;253.30;;;41.05;;
7917;SDS011;4004;42.624;23.386;2022-11-15T04:45:15;248.43;;;39.53;;
7917;SDS011;4004;42.624;23.386;2022-11-15T04:47:42;81.40;;;35.25;;
7917;SDS011;4004;42.624;23.386;2022-11-15T04:50:11;179.43;;;36.83;;
7917;SDS011;4004;42.624;23.386;2022-11-15T04:52:39;87.82;;;38.28;;
7917;SDS011;4004;42.624;23.386;2022-11-15T04:55:07;82.00;;;36.07;;
7917;SDS011;4004;42.624;23.386;2022-11-15T04:57:34;166.30;;;39.30;;
7917;SDS011;4004;42.624;23.386;2022-11-15T05:00:01;64.47;;;37.20;;
7917;SDS011;4004;42.624;23.386;2022-11-15T05:02:29;57.47;;;33.83;;
7917;SDS011;4004;42.624;23.386;2022-11-15T05:05:17;103.23;;;37.97;;
7917;SDS011;4004;42.624;23.386;2022-11-15T05:07:42;57.70;;;33.40;;
7917;SDS011;4004;42.624;23.386;2022-11-15T05:10:09;99.20;;;32.97;;
7917;SDS011;4004;42.624;23.386;2022-11-15T05:12:36;48.70;;;32.80;;
7917;SDS011;4004;42.624;23.386;2022-11-15T05:15:03;54.33;;;30.97;;
7917;SDS011;4004;42.624;23.386;2022-11-15T05:17:30;48.43;;;29.77;;
7917;SDS011;4004;42.624;23.386;2022-11-15T05:19:57;56.83;;;30.23;;
7917;SDS011;4004;42.624;23.386;2022-11-15T05:22:25;49.93;;;31.90;;
7917;SDS011;4004;42.624;23.386;2022-11-15T05:24:52;68.53;;;37.87;;
7917;SDS011;4004;42.624;23.386;2022-11-15T05:27:19;109.00;;;35.57;;
7917;SDS011;4004;42.624;23.386;2022-11-15T05:29:46;50.43;;;32.00;;
7917;SDS011;4004;42.624;23.386;2022-11-15T05:32:13;51.17;;;29.23;;
7917;SDS011;4004;42.624;23.386;2022-11-15T05:34:40;41.47;;;26.60;;
7917;SDS011;4004;42.624;23.386;2022-11-15T05:37:06;57.87;;;26.60;;
7917;SDS011;4004;42.624;23.386;2022-11-15T05:39:35;56.70;;;26.13;;
7917;SDS011;4004;42.624;23.386;2022-11-15T05:42:02;48.57;;;25.13;;
7917;SDS011;4004;42.624;23.386;2022-11-15T05:44:32;44.90;;;23.40;;
7917;SDS011;4004;42.624;23.386;2022-11-15T05:47:02;43.07;;;22.60;;
7917;SDS011;4004;42.624;23.386;2022-11-15T05:49:31;33.53;;;21.17;;
7917;SDS011;4004;42.624;23.386;2022-11-15T05:52:02;33.27;;;20.73;;
7917;SDS011;4004;42.624;23.386;2022-11-15T05:54:31;122.50;;;76.23;;
7917;SDS011;4004;42.624;23.386;2022-11-15T05:57:00;64.07;;;39.40;;
7917;SDS011;4004;42.624;23.386;2022-11-15T05:59:27;70.00;;;30.37;;
7917;SDS011;4004;42.624;23.386;2022-11-15T06:01:55;58.77;;;29.43;;
7917;SDS011;4004;42.624;23.386;2022-11-15T06:04:22;72.80;;;31.77;;
7917;SDS011;4004;42.624;23.386;2022-11-15T06:06:49;68.37;;;33.07;;
7917;SDS011;4004;42.624;23.386;2022-11-15T06:09:15;62.10;;;33.37;;
7917;SDS011;4004;42.624;23.386;2022-11-15T06:11:42;57.87;;;30.57;;
7917;SDS011;4004;42.624;23.386;2022-11-15T06:14:10;63.80;;;30.83;;
7917;SDS011;4004;42.624;23.386;2022-11-15T06:16:37;51.97;;;30.00;;
7917;SDS011;4004;42.624;23.386;2022-11-15T06:19:05;56.40;;;30.27;;
7917;SDS011;4004;42.624;23.386;2022-11-15T06:21:32;52.90;;;30.17;;
7917;SDS011;4004;42.624;23.386;2022-11-15T06:23:58;61.53;;;29.30;;
7917;SDS011;4004;42.624;23.386;2022-11-15T06:26:25;49.67;;;29.87;;
7917;SDS011;4004;42.624;23.386;2022-11-15T06:28:52;56.03;;;30.83;;
7917;SDS011;4004;42.624;23.386;2022-11-15T06:31:20;50.17;;;29.10;;
7917;SDS011;4004;42.624;23.386;2022-11-15T06:33:47;37.87;;;22.37;;
7917;SDS011;4004;42.624;23.386;2022-11-15T06:36:14;27.70;;;18.70;;
7917;SDS011;4004;42.624;23.386;2022-11-15T06:38:42;34.23;;;21.60;;
7917;SDS011;4004;42.624;23.386;2022-11-15T06:41:09;50.60;;;27.60;;
7917;SDS011;4004;42.624;23.386;2022-11-15T06:43:37;58.03;;;26.20;;
7917;SDS011;4004;42.624;23.386;2022-11-15T06:46:04;31.40;;;19.37;;
7917;SDS011;4004;42.624;23.386;2022-11-15T06:48:33;27.30;;;18.83;;
7917;SDS011;4004;42.624;23.386;2022-11-15T06:51:01;28.73;;;18.67;;
7917;SDS011;4004;42.624;23.386;2022-11-15T06:53:30;29.20;;;19.20;;
7917;SDS011;4004;42.624;23.386;2022-11-15T06:55:58;35.73;;;21.93;;
7917;SDS011;4004;42.624;23.386;2022-11-15T06:58:25;30.50;;;20.20;;
7917;SDS011;4004;42.624;23.386;2022-11-15T07:00:52;30.50;;;19.83;;
7917;SDS011;4004;42.624;23.386;2022-11-15T07:03:19;30.43;;;20.33;;
7917;SDS011;4004;42.624;23.386;2022-11-15T07:05:51;20.60;;;15.57;;
7917;SDS011;4004;42.624;23.386;2022-11-15T07:08:19;25.50;;;17.40;;
7917;SDS011;4004;42.624;23.386;2022-11-15T07:10:46;26.40;;;18.93;;
7917;SDS011;4004;42.624;23.386;2022-11-15T07:13:13;28.57;;;18.03;;
7917;SDS011;4004;42.624;23.386;2022-11-15T07:15:39;28.40;;;17.77;;
7917;SDS011;4004;42.624;23.386;2022-11-15T07:18:06;33.20;;;18.33;;
7917;SDS011;4004;42.624;23.386;2022-11-15T07:20:33;31.53;;;20.40;;
7917;SDS011;4004;42.624;23.386;2022-11-15T07:23:01;31.50;;;20.23;;
7917;SDS011;4004;42.624;23.386;2022-11-15T07:25:29;34.13;;;21.40;;
7917;SDS011;4004;42.624;23.386;2022-11-15T07:27:56;38.13;;;23.80;;
7917;SDS011;4004;42.624;23.386;2022-11-15T07:30:23;32.77;;;22.13;;
7917;SDS011;4004;42.624;23.386;2022-11-15T07:32:52;110.60;;;28.20;;
7917;SDS011;4004;42.624;23.386;2022-11-15T07:35:19;64.30;;;24.57;;
7917;SDS011;4004;42.624;23.386;2022-11-15T07:37:52;103.97;;;26.80;;
7917;SDS011;4004;42.624;23.386;2022-11-15T07:40:21;104.97;;;26.37;;
7917;SDS011;4004;42.624;23.386;2022-11-15T07:42:48;74.03;;;28.03;;
7917;SDS011;4004;42.624;23.386;2022-11-15T07:45:21;91.83;;;27.17;;
7917;SDS011;4004;42.624;23.386;2022-11-15T07:47:51;83.33;;;26.47;;
7917;SDS011;4004;42.624;23.386;2022-11-15T07:50:18;53.70;;;27.80;;
7917;SDS011;4004;42.624;23.386;2022-11-15T07:52:45;53.40;;;27.17;;
7917;SDS011;4004;42.624;23.386;2022-11-15T07:55:11;52.10;;;28.53;;
7917;SDS011;4004;42.624;23.386;2022-11-15T07:57:40;49.77;;;25.77;;
7917;SDS011;4004;42.624;23.386;2022-11-15T08:00:07;50.30;;;29.20;;
7917;SDS011;4004;42.624;23.386;2022-11-15T08:02:34;47.27;;;27.00;;
7917;SDS011;4004;42.624;23.386;2022-11-15T08:05:01;52.60;;;27.07;;
7917;SDS011;4004;42.624;23.386;2022-11-15T08:07:28;45.73;;;27.97;;
7917;SDS011;4004;42.624;23.386;2022-11-15T08:09:56;49.70;;;27.93;;
7917;SDS011;4004;42.624;23.386;2022-11-15T08:12:23;60.33;;;27.73;;
7917;SDS011;4004;42.624;23.386;2022-11-15T08:14:51;45.43;;;29.10;;
7917;SDS011;4004;42.624;23.386;2022-11-15T08:17:18;44.30;;;27.60;;
7917;SDS011;4004;42.624;23.386;2022-11-15T08:19:44;44.27;;;29.83;;
7917;SDS011;4004;42.624;23.386;2022-11-15T08:22:11;48.90;;;28.00;;
7917;SDS011;4004;42.624;23.386;2022-11-15T08:24:38;48.20;;;30.50;;
7917;SDS011;4004;42.624;23.386;2022-11-15T08:27:05;50.20;;;32.27;;
7917;SDS011;4004;42.624;23.386;2022-11-15T08:29:40;50.03;;;28.97;;
7917;SDS011;4004;42.624;23.386;2022-11-15T08:32:09;50.83;;;30.93;;
7917;SDS011;4004;42.624;23.386;2022-11-15T08:34:36;56.47;;;33.37;;
7917;SDS011;4004;42.624;23.386;2022-11-15T08:37:03;51.20;;;32.87;;
7917;SDS011;4004;42.624;23.386;2022-11-15T08:39:29;48.90;;;32.70;;
7917;SDS011;4004;42.624;23.386;2022-11-15T08:41:56;59.37;;;35.90;;
7917;SDS011;4004;42.624;23.386;2022-11-15T08:44:23;62.17;;;39.00;;
7917;SDS011;4004;42.624;23.386;2022-11-15T08:46:50;62.57;;;38.93;;
7917;SDS011;4004;42.624;23.386;2022-11-15T08:49:18;69.67;;;42.57;;
7917;SDS011;4004;42.624;23.386;2022-11-15T08:51:45;68.27;;;40.70;;
7917;SDS011;4004;42.624;23.386;2022-11-15T08:54:11;70.03;;;43.23;;
7917;SDS011;4004;42.624;23.386;2022-11-15T08:56:38;67.60;;;42.43;;
7917;SDS011;4004;42.624;23.386;2022-11-15T08:59:05;68.10;;;39.87;;
7917;SDS011;4004;42.624;23.386;2022-11-15T09:01:32;57.77;;;39.67;;
7917;SDS011;4004;42.624;23.386;2022-11-15T09:03:58;62.70;;;40.03;;
7917;SDS011;4004;42.624;23.386;2022-11-15T09:06:27;61.30;;;35.27;;
7917;SDS011;4004;42.624;23.386;2022-11-15T09:08:53;59.80;;;37.07;;
7917;SDS011;4004;42.624;23.386;2022-11-15T09:11:20;65.73;;;40.50;;
7917;SDS011;4004;42.624;23.386;2022-11-15T09:13:48;67.53;;;44.55;;
7917;SDS011;4004;42.624;23.386;2022-11-15T09:16:15;61.87;;;40.53;;
7917;SDS011;4004;42.624;23.386;2022-11-15T09:18:42;73.00;;;42.50;;
7917;SDS011;4004;42.624;23.386;2022-11-15T09:21:09;65.43;;;43.00;;
7917;SDS011;4004;42.624;23.386;2022-11-15T09:23:37;74.30;;;41.43;;
7917;SDS011;4004;42.624;23.386;2022-11-15T09:26:04;74.03;;;44.17;;
7917;SDS011;4004;42.624;23.386;2022-11-15T09:28:32;69.40;;;44.80;;
7917;SDS011;4004;42.624;23.386;2022-11-15T09:31:01;67.80;;;43.30;;
7917;SDS011;4004;42.624;23.386;2022-11-15T09:33:29;69.20;;;43.50;;
7917;SDS011;4004;42.624;23.386;2022-11-15T09:36:00;74.00;;;45.90;;
7917;SDS011;4004;42.624;23.386;2022-11-15T09:38:27;66.40;;;42.93;;
7917;SDS011;4004;42.624;23.386;2022-11-15T09:40:59;72.77;;;44.10;;
7917;SDS011;4004;42.624;23.386;2022-11-15T09:43:45;70.87;;;45.13;;
7917;SDS011;4004;42.624;23.386;2022-11-15T09:46:19;76.67;;;46.40;;
7917;SDS011;4004;42.624;23.386;2022-11-15T09:48:53;72.47;;;45.93;;
7917;SDS011;4004;42.624;23.386;2022-11-15T09:51:26;74.73;;;46.17;;
7917;SDS011;4004;42.624;23.386;2022-11-15T09:53:56;75.40;;;46.07;;
7917;SDS011;4004;42.624;23.386;2022-11-15T09:56:32;73.33;;;46.67;;
7917;SDS011;4004;42.624;23.386;2022-11-15T09:59:10;67.43;;;44.77;;
7917;SDS011;4004;42.624;23.386;2022-11-15T10:01:50;67.87;;;43.57;;
7917;SDS011;4004;42.624;23.386;2022-11-15T10:04:25;69.60;;;42.83;;
7917;SDS011;4004;42.624;23.386;2022-11-15T10:06:55;67.37;;;44.07;;
7917;SDS011;4004;42.624;23.386;2022-11-15T10:09:30;69.37;;;45.43;;
7917;SDS011;4004;42.624;23.386;2022-11-15T10:12:05;74.20;;;46.90;;
7917;SDS011;4004;42.624;23.386;2022-11-15T10:14:33;75.73;;;48.07;;
7917;SDS011;4004;42.624;23.386;2022-11-15T10:17:20;64.90;;;43.50;;
7917;SDS011;4004;42.624;23.386;2022-11-15T10:20:07;71.73;;;46.10;;
7917;SDS011;4004;42.624;23.386;2022-11-15T10:22:39;72.03;;;47.27;;
7917;SDS011;4004;42.624;23.386;2022-11-15T10:25:12;64.90;;;43.10;;
7917;SDS011;4004;42.624;23.386;2022-11-15T10:27:47;68.83;;;46.07;;
7917;SDS011;4004;42.624;23.386;2022-11-15T10:30:19;68.50;;;44.90;;
7917;SDS011;4004;42.624;23.386;2022-11-15T10:32:47;65.70;;;45.00;;
7917;SDS011;4004;42.624;23.386;2022-11-15T10:35:18;69.37;;;45.60;;
7917;SDS011;4004;42.624;23.386;2022-11-15T10:37:47;69.27;;;45.10;;
7917;SDS011;4004;42.624;23.386;2022-11-15T10:40:18;66.73;;;44.50;;
7917;SDS011;4004;42.624;23.386;2022-11-15T10:42:48;69.33;;;45.77;;
7917;SDS011;4004;42.624;23.386;2022-11-15T10:45:32;70.70;;;46.37;;
7917;SDS011;4004;42.624;23.386;2022-11-15T10:48:18;76.67;;;46.37;;
7917;SDS011;4004;42.624;23.386;2022-11-15T10:50:47;66.87;;;45.53;;
7917;SDS011;4004;42.624;23.386;2022-11-15T10:53:17;67.10;;;45.17;;
7917;SDS011;4004;42.624;23.386;2022-11-15T10:55:48;65.53;;;43.30;;
7917;SDS011;4004;42.624;23.386;2022-11-15T10:58:22;55.63;;;40.87;;
7917;SDS011;4004;42.624;23.386;2022-11-15T11:01:08;62.77;;;41.87;;
7917;SDS011;4004;42.624;23.386;2022-11-15T11:03:36;62.73;;;42.33;;
7917;SDS011;4004;42.624;23.386;2022-11-15T11:06:05;62.07;;;42.43;;
7917;SDS011;4004;42.624;23.386;2022-11-15T11:08:34;73.00;;;46.30;;
7917;SDS011;4004;42.624;23.386;2022-11-15T11:11:02;66.50;;;44.33;;
7917;SDS011;4004;42.624;23.386;2022-11-15T11:13:32;64.27;;;43.00;;
7917;SDS011;4004;42.624;23.386;2022-11-15T11:16:07;67.57;;;43.97;;
7917;SDS011;4004;42.624;23.386;2022-11-15T11:18:46;64.87;;;44.13;;
7917;SDS011;4004;42.624;23.386;2022-11-15T11:21:21;70.30;;;44.10;;
7917;SDS011;4004;42.624;23.386;2022-11-15T11:23:52;66.63;;;42.47;;
7917;SDS011;4004;42.624;23.386;2022-11-15T11:26:32;61.47;;;42.30;;
7917;SDS011;4004;42.624;23.386;2022-11-15T11:29:14;62.37;;;42.77;;
7917;SDS011;4004;42.624;23.386;2022-11-15T11:31:55;68.90;;;44.83;;
7917;SDS011;4004;42.624;23.386;2022-11-15T11:34:32;68.97;;;47.28;;
7917;SDS011;4004;42.624;23.386;2022-11-15T11:37:09;64.73;;;41.83;;
7917;SDS011;4004;42.624;23.386;2022-11-15T11:39:42;68.73;;;42.43;;
7917;SDS011;4004;42.624;23.386;2022-11-15T11:42:25;62.37;;;42.00;;
7917;SDS011;4004;42.624;23.386;2022-11-15T11:45:01;58.83;;;40.43;;
7917;SDS011;4004;42.624;23.386;2022-11-15T11:47:43;57.77;;;40.97;;
7917;SDS011;4004;42.624;23.386;2022-11-15T11:50:14;58.67;;;39.57;;
7917;SDS011;4004;42.624;23.386;2022-11-15T11:52:57;60.80;;;39.53;;
7917;SDS011;4004;42.624;23.386;2022-11-15T11:55:28;61.57;;;40.03;;
7917;SDS011;4004;42.624;23.386;2022-11-15T11:58:02;55.90;;;40.50;;
7917;SDS011;4004;42.624;23.386;2022-11-15T12:00:38;62.03;;;40.90;;
7917;SDS011;4004;42.624;23.386;2022-11-15T12:03:11;67.07;;;40.07;;
7917;SDS011;4004;42.624;23.386;2022-11-15T12:05:42;66.33;;;41.13;;
7917;SDS011;4004;42.624;23.386;2022-11-15T12:08:17;63.27;;;40.27;;
7917;SDS011;4004;42.624;23.386;2022-11-15T12:10:51;58.80;;;40.37;;
7917;SDS011;4004;42.624;23.386;2022-11-15T12:13:24;62.43;;;39.37;;
7917;SDS011;4004;42.624;23.386;2022-11-15T12:15:56;58.47;;;40.70;;
7917;SDS011;4004;42.624;23.386;2022-11-15T12:18:26;55.07;;;39.27;;
7917;SDS011;4004;42.624;23.386;2022-11-15T12:20:55;56.97;;;39.00;;
7917;SDS011;4004;42.624;23.386;2022-11-15T12:23:25;59.07;;;39.47;;
7917;SDS011;4004;42.624;23.386;2022-11-15T12:25:56;59.00;;;41.20;;
7917;SDS011;4004;42.624;23.386;2022-11-15T12:28:27;70.37;;;42.67;;
7917;SDS011;4004;42.624;23.386;2022-11-15T12:31:03;60.30;;;39.60;;
7917;SDS011;4004;42.624;23.386;2022-11-15T12:33:37;59.20;;;39.90;;
7917;SDS011;4004;42.624;23.386;2022-11-15T12:36:08;64.43;;;42.53;;
7917;SDS011;4004;42.624;23.386;2022-11-15T12:38:50;64.57;;;39.40;;
7917;SDS011;4004;42.624;23.386;2022-11-15T12:41:20;65.27;;;40.53;;
7917;SDS011;4004;42.624;23.386;2022-11-15T12:43:48;58.57;;;40.73;;
7917;SDS011;4004;42.624;23.386;2022-11-15T12:46:21;60.33;;;40.53;;
7917;SDS011;4004;42.624;23.386;2022-11-15T12:49:09;56.93;;;39.57;;
7917;SDS011;4004;42.624;23.386;2022-11-15T12:52:07;62.77;;;38.90;;
7917;SDS011;4004;42.624;23.386;2022-11-15T12:57:48;53.43;;;37.63;;
7917;SDS011;4004;42.624;23.386;2022-11-15T13:06:03;58.87;;;39.43;;
7917;SDS011;4004;42.624;23.386;2022-11-15T13:08:43;52.57;;;38.37;;
7917;SDS011;4004;42.624;23.386;2022-11-15T13:17:10;59.70;;;39.27;;
7917;SDS011;4004;42.624;23.386;2022-11-15T13:19:52;60.10;;;38.43;;
7917;SDS011;4004;42.624;23.386;2022-11-15T13:22:23;57.27;;;36.77;;
7917;SDS011;4004;42.624;23.386;2022-11-15T13:25:14;52.90;;;38.17;;
7917;SDS011;4004;42.624;23.386;2022-11-15T13:27:44;64.67;;;39.63;;
7917;SDS011;4004;42.624;23.386;2022-11-15T13:30:13;56.27;;;39.80;;
7917;SDS011;4004;42.624;23.386;2022-11-15T13:32:45;57.37;;;38.27;;
7917;SDS011;4004;42.624;23.386;2022-11-15T13:35:17;56.07;;;38.60;;
7917;SDS011;4004;42.624;23.386;2022-11-15T13:37:47;56.13;;;38.63;;
7917;SDS011;4004;42.624;23.386;2022-11-15T13:40:25;56.30;;;38.13;;
7917;SDS011;4004;42.624;23.386;2022-11-15T13:42:55;53.60;;;37.90;;
7917;SDS011;4004;42.624;23.386;2022-11-15T13:45:23;58.63;;;38.50;;
7917;SDS011;4004;42.624;23.386;2022-11-15T13:47:52;58.00;;;38.27;;
7917;SDS011;4004;42.624;23.386;2022-11-15T13:50:22;56.83;;;38.20;;
7917;SDS011;4004;42.624;23.386;2022-11-15T13:52:51;58.43;;;38.87;;
7917;SDS011;4004;42.624;23.386;2022-11-15T13:55:20;59.63;;;37.93;;
7917;SDS011;4004;42.624;23.386;2022-11-15T13:57:49;63.83;;;40.20;;
7917;SDS011;4004;42.624;23.386;2022-11-15T14:03:10;60.60;;;40.73;;
7917;SDS011;4004;42.624;23.386;2022-11-15T14:05:43;50.27;;;38.03;;
7917;SDS011;4004;42.624;23.386;2022-11-15T14:08:22;59.90;;;39.73;;
7917;SDS011;4004;42.624;23.386;2022-11-15T14:11:05;68.30;;;40.27;;
7917;SDS011;4004;42.624;23.386;2022-11-15T14:13:33;56.60;;;37.60;;
7917;SDS011;4004;42.624;23.386;2022-11-15T14:16:14;56.77;;;38.10;;
7917;SDS011;4004;42.624;23.386;2022-11-15T14:18:43;67.60;;;41.87;;
7917;SDS011;4004;42.624;23.386;2022-11-15T14:21:13;60.43;;;40.63;;
7917;SDS011;4004;42.624;23.386;2022-11-15T14:23:40;60.53;;;40.80;;
7917;SDS011;4004;42.624;23.386;2022-11-15T14:26:10;63.97;;;40.53;;
7917;SDS011;4004;42.624;23.386;2022-11-15T14:28:52;61.33;;;42.07;;
7917;SDS011;4004;42.624;23.386;2022-11-15T14:31:18;71.93;;;43.53;;
7917;SDS011;4004;42.624;23.386;2022-11-15T14:33:46;65.77;;;42.97;;
7917;SDS011;4004;42.624;23.386;2022-11-15T14:36:15;62.50;;;43.30;;
7917;SDS011;4004;42.624;23.386;2022-11-15T14:38:44;77.30;;;41.10;;
7917;SDS011;4004;42.624;23.386;2022-11-15T14:41:17;70.33;;;40.30;;
7917;SDS011;4004;42.624;23.386;2022-11-15T14:43:45;76.07;;;42.97;;
7917;SDS011;4004;42.624;23.386;2022-11-15T14:46:12;76.17;;;48.23;;
7917;SDS011;4004;42.624;23.386;2022-11-15T14:48:39;80.23;;;46.83;;
7917;SDS011;4004;42.624;23.386;2022-11-15T14:51:09;84.27;;;48.17;;
7917;SDS011;4004;42.624;23.386;2022-11-15T14:53:39;88.80;;;50.27;;
7917;SDS011;4004;42.624;23.386;2022-11-15T14:56:06;91.90;;;51.37;;
7917;SDS011;4004;42.624;23.386;2022-11-15T14:58:33;74.77;;;50.00;;
7917;SDS011;4004;42.624;23.386;2022-11-15T15:01:01;68.80;;;46.57;;
7917;SDS011;4004;42.624;23.386;2022-11-15T15:03:29;70.83;;;45.37;;
7917;SDS011;4004;42.624;23.386;2022-11-15T15:05:56;67.97;;;42.97;;
7917;SDS011;4004;42.624;23.386;2022-11-15T15:08:22;78.07;;;44.53;;
7917;SDS011;4004;42.624;23.386;2022-11-15T15:10:50;68.83;;;43.87;;